41TE weather

Vamc Heliport
Kerrville, Texas, United States

Public forecast

Using degrees Fahrenheit for public forecast. Weather courtesy of forecast.io.

Closest aviation weather report (METAR) to Vamc Heliport

Closest report is Kerrville Municipal Louis Schreiner Field, 2.7 nm (4.9 km) SSE. Retrieved 2019/10/17 08:35 UTC (22 minutes ago):

KERV 170835Z AUTO 00000KT 10SM OVC110 12/07 A3009 RMK AO2 T01200072

Closest aviation forecast (TAF) to Vamc Heliport

Closest forecast is San Antonio International Airport, 44.2 nm (81.9 km) SE. Retrieved 2019/10/17 06:39 UTC (2 hours ago):

TAF KSAT 170537Z 1706/1812 02005KT P6SM BKN100 FM172100 10004KT P6SM SCT100 FM180100 VRB02KT P6SM SCT100